Terminal Aerodrome Forecast
Issued by NWS

Home | Current Version | Previous Version | Text Only | Print | Product List | Glossary On
Versions: 1 2 3 4 5 6 7 8 9 10 11 12 13 14 15 16 17 18 19 20 21 22 23 24 25 26 27 28 29 30 31 32 33
000
FTUS45 KBOU 290539
TAFAPA
TAF
KAPA 290539Z 2906/3006 01017G30KT 4SM -RASN BR OVC006
      TEMPO 2906/2908 1 1/2SM -SNRA BR OVC002
     FM290900 36014KT 3SM -SN BR BKN003 OVC005
     FM291400 35012KT P6SM -SHRA SCT008 BKN012
     FM291800 34015KT 5SM -RA BR SCT012 BKN020
     FM292000 01015KT P6SM SCT020 BKN035
     FM300100 05008KT P6SM SCT035 SCT100
     FM300300 11006KT P6SM FEW100=

USA.gov is the U.S. government's official web portal to all federal, state and local government web resources and services.